sensor_id;sensor_type;location;lat;lon;timestamp;pressure;altitude;pressure_sealevel;temperature;humidity
57606;BME280;43430;48.204;11.556;2023-01-29T00:00:42;96979.06;;;-1.18;100.00
57606;BME280;43430;48.204;11.556;2023-01-29T00:03:07;96974.44;;;-1.15;100.00
57606;BME280;43430;48.204;11.556;2023-01-29T00:05:33;96974.03;;;-1.20;100.00
57606;BME280;43430;48.204;11.556;2023-01-29T00:07:59;96969.34;;;-1.26;100.00
57606;BME280;43430;48.204;11.556;2023-01-29T00:10:25;96975.47;;;-1.27;100.00
57606;BME280;43430;48.204;11.556;2023-01-29T00:12:50;96974.44;;;-1.15;100.00
57606;BME280;43430;48.204;11.556;2023-01-29T00:15:16;96982.13;;;-1.13;100.00
57606;BME280;43430;48.204;11.556;2023-01-29T00:17:41;96980.81;;;-1.19;100.00
57606;BME280;43430;48.204;11.556;2023-01-29T00:20:07;96975.91;;;-1.22;100.00
57606;BME280;43430;48.204;11.556;2023-01-29T00:22:33;96975.66;;;-1.19;100.00
57606;BME280;43430;48.204;11.556;2023-01-29T00:24:58;96978.47;;;-1.22;100.00
57606;BME280;43430;48.204;11.556;2023-01-29T00:27:24;96983.91;;;-1.25;100.00
57606;BME280;43430;48.204;11.556;2023-01-29T00:29:49;96986.44;;;-1.14;100.00
57606;BME280;43430;48.204;11.556;2023-01-29T00:32:33;96989.41;;;-1.18;100.00
57606;BME280;43430;48.204;11.556;2023-01-29T00:34:58;96998.22;;;-1.10;100.00
57606;BME280;43430;48.204;11.556;2023-01-29T00:37:24;96981.22;;;-1.24;100.00
57606;BME280;43430;48.204;11.556;2023-01-29T00:39:49;96978.03;;;-1.27;100.00
57606;BME280;43430;48.204;11.556;2023-01-29T00:42:14;96982.47;;;-1.18;100.00
57606;BME280;43430;48.204;11.556;2023-01-29T00:44:58;96978.25;;;-1.19;100.00
57606;BME280;43430;48.204;11.556;2023-01-29T00:47:24;96974.25;;;-1.23;100.00
57606;BME280;43430;48.204;11.556;2023-01-29T00:50:05;96982.03;;;-1.23;100.00
57606;BME280;43430;48.204;11.556;2023-01-29T00:52:31;96982.84;;;-1.23;100.00
57606;BME280;43430;48.204;11.556;2023-01-29T00:54:58;96984.63;;;-1.23;100.00
57606;BME280;43430;48.204;11.556;2023-01-29T00:57:26;96979.91;;;-1.29;100.00
57606;BME280;43430;48.204;11.556;2023-01-29T00:59:52;96979.22;;;-1.31;100.00
57606;BME280;43430;48.204;11.556;2023-01-29T01:02:18;96978.28;;;-1.30;100.00
57606;BME280;43430;48.204;11.556;2023-01-29T01:05:03;96977.97;;;-1.37;100.00
57606;BME280;43430;48.204;11.556;2023-01-29T01:07:30;96976.44;;;-1.39;100.00
57606;BME280;43430;48.204;11.556;2023-01-29T01:09:55;96978.41;;;-1.32;100.00
57606;BME280;43430;48.204;11.556;2023-01-29T01:12:39;96983.31;;;-1.29;100.00
57606;BME280;43430;48.204;11.556;2023-01-29T01:15:05;96979.78;;;-1.28;100.00
57606;BME280;43430;48.204;11.556;2023-01-29T01:17:30;96981.38;;;-1.36;100.00
57606;BME280;43430;48.204;11.556;2023-01-29T01:19:56;96974.41;;;-1.36;100.00
57606;BME280;43430;48.204;11.556;2023-01-29T01:22:21;96980.66;;;-1.38;100.00
57606;BME280;43430;48.204;11.556;2023-01-29T01:24:47;96980.66;;;-1.38;100.00
57606;BME280;43430;48.204;11.556;2023-01-29T01:27:12;96971.97;;;-1.37;100.00
57606;BME280;43430;48.204;11.556;2023-01-29T01:29:38;96975.00;;;-1.32;100.00
57606;BME280;43430;48.204;11.556;2023-01-29T01:32:04;96974.25;;;-1.23;100.00
57606;BME280;43430;48.204;11.556;2023-01-29T01:34:30;96976.38;;;-1.17;100.00
57606;BME280;43430;48.204;11.556;2023-01-29T01:36:55;96971.69;;;-1.23;100.00
57606;BME280;43430;48.204;11.556;2023-01-29T01:39:21;96971.09;;;-1.27;100.00
57606;BME280;43430;48.204;11.556;2023-01-29T01:41:46;96959.66;;;-1.24;100.00
57606;BME280;43430;48.204;11.556;2023-01-29T01:44:54;96961.31;;;-1.23;100.00
57606;BME280;43430;48.204;11.556;2023-01-29T01:47:32;96951.91;;;-1.24;100.00
57606;BME280;43430;48.204;11.556;2023-01-29T01:50:03;96944.84;;;-1.22;100.00
57606;BME280;43430;48.204;11.556;2023-01-29T01:52:34;96954.25;;;-1.21;100.00
57606;BME280;43430;48.204;11.556;2023-01-29T01:55:01;96944.03;;;-1.23;100.00
57606;BME280;43430;48.204;11.556;2023-01-29T01:57:27;96947.69;;;-1.25;100.00
57606;BME280;43430;48.204;11.556;2023-01-29T01:59:58;96945.47;;;-1.30;100.00
57606;BME280;43430;48.204;11.556;2023-01-29T02:02:24;96935.44;;;-1.23;100.00
57606;BME280;43430;48.204;11.556;2023-01-29T02:05:10;96938.13;;;-1.13;100.00
57606;BME280;43430;48.204;11.556;2023-01-29T02:07:56;96945.25;;;-1.06;100.00
57606;BME280;43430;48.204;11.556;2023-01-29T02:10:46;96943.34;;;-1.04;100.00
57606;BME280;43430;48.204;11.556;2023-01-29T02:13:13;96952.75;;;-1.03;100.00
57606;BME280;43430;48.204;11.556;2023-01-29T02:15:41;96959.75;;;-1.14;100.00
57606;BME280;43430;48.204;11.556;2023-01-29T02:18:12;96963.84;;;-1.12;100.00
57606;BME280;43430;48.204;11.556;2023-01-29T02:20:41;96954.88;;;-1.08;100.00
57606;BME280;43430;48.204;11.556;2023-01-29T02:26:14;96958.69;;;-1.12;100.00
57606;BME280;43430;48.204;11.556;2023-01-29T02:28:46;96953.56;;;-1.23;100.00
57606;BME280;43430;48.204;11.556;2023-01-29T02:31:31;96954.50;;;-1.24;100.00
57606;BME280;43430;48.204;11.556;2023-01-29T02:39:16;96948.09;;;-1.09;100.00
57606;BME280;43430;48.204;11.556;2023-01-29T02:44:32;96945.03;;;-1.14;100.00
57606;BME280;43430;48.204;11.556;2023-01-29T02:49:54;96929.25;;;-1.11;100.00
57606;BME280;43430;48.204;11.556;2023-01-29T02:52:31;96909.25;;;-1.09;100.00
57606;BME280;43430;48.204;11.556;2023-01-29T02:55:11;96918.22;;;-1.13;100.00
57606;BME280;43430;48.204;11.556;2023-01-29T02:57:40;96921.75;;;-1.14;100.00
57606;BME280;43430;48.204;11.556;2023-01-29T03:02:50;96929.97;;;-1.09;100.00
57606;BME280;43430;48.204;11.556;2023-01-29T03:05:24;96924.66;;;-1.07;100.00
57606;BME280;43430;48.204;11.556;2023-01-29T03:07:55;96933.13;;;-1.05;100.00
57606;BME280;43430;48.204;11.556;2023-01-29T03:13:01;96935.53;;;-0.92;100.00
57606;BME280;43430;48.204;11.556;2023-01-29T03:15:33;96931.53;;;-0.97;100.00
57606;BME280;43430;48.204;11.556;2023-01-29T03:18:34;96934.41;;;-1.00;100.00
57606;BME280;43430;48.204;11.556;2023-01-29T03:21:09;96928.75;;;-1.05;100.00
57606;BME280;43430;48.204;11.556;2023-01-29T03:23:55;96941.00;;;-1.07;100.00
57606;BME280;43430;48.204;11.556;2023-01-29T03:26:41;96943.72;;;-1.08;100.00
57606;BME280;43430;48.204;11.556;2023-01-29T03:29:26;96942.91;;;-1.09;100.00
57606;BME280;43430;48.204;11.556;2023-01-29T03:32:11;96944.94;;;-1.12;100.00
57606;BME280;43430;48.204;11.556;2023-01-29T03:34:41;96950.91;;;-1.12;100.00
57606;BME280;43430;48.204;11.556;2023-01-29T03:37:31;96945.16;;;-1.15;100.00
57606;BME280;43430;48.204;11.556;2023-01-29T03:40:00;96946.22;;;-1.18;100.00
57606;BME280;43430;48.204;11.556;2023-01-29T03:42:33;96944.78;;;-1.11;100.00
57606;BME280;43430;48.204;11.556;2023-01-29T03:52:50;96908.47;;;-1.21;100.00
57606;BME280;43430;48.204;11.556;2023-01-29T03:55:20;96908.44;;;-1.09;100.00
57606;BME280;43430;48.204;11.556;2023-01-29T03:58:46;96904.25;;;-1.01;100.00
57606;BME280;43430;48.204;11.556;2023-01-29T04:00:54;96892.28;;;-1.02;100.00
57606;BME280;43430;48.204;11.556;2023-01-29T04:03:29;96893.47;;;-1.06;100.00
57606;BME280;43430;48.204;11.556;2023-01-29T04:06:03;96892.78;;;-1.08;100.00
57606;BME280;43430;48.204;11.556;2023-01-29T04:08:39;96901.34;;;-1.07;100.00
57606;BME280;43430;48.204;11.556;2023-01-29T04:11:12;96892.78;;;-1.08;100.00
57606;BME280;43430;48.204;11.556;2023-01-29T04:13:39;96900.19;;;-1.03;100.00
57606;BME280;43430;48.204;11.556;2023-01-29T04:16:06;96905.59;;;-1.06;100.00
57606;BME280;43430;48.204;11.556;2023-01-29T04:18:35;96901.50;;;-1.09;100.00
57606;BME280;43430;48.204;11.556;2023-01-29T04:21:00;96901.50;;;-1.09;100.00
57606;BME280;43430;48.204;11.556;2023-01-29T04:23:26;96899.03;;;-1.10;100.00
57606;BME280;43430;48.204;11.556;2023-01-29T04:28:27;96909.19;;;-1.18;100.00
57606;BME280;43430;48.204;11.556;2023-01-29T04:31:03;96911.34;;;-1.24;100.00
57606;BME280;43430;48.204;11.556;2023-01-29T04:36:08;96908.75;;;-1.24;100.00
57606;BME280;43430;48.204;11.556;2023-01-29T04:44:17;96914.75;;;-1.23;100.00
57606;BME280;43430;48.204;11.556;2023-01-29T05:00:48;96903.59;;;-1.24;100.00
57606;BME280;43430;48.204;11.556;2023-01-29T05:03:17;96905.41;;;-1.14;100.00
57606;BME280;43430;48.204;11.556;2023-01-29T05:05:47;96901.31;;;-1.17;100.00
57606;BME280;43430;48.204;11.556;2023-01-29T05:08:18;96910.50;;;-1.24;100.00
57606;BME280;43430;48.204;11.556;2023-01-29T05:10:45;96918.00;;;-1.21;100.00
57606;BME280;43430;48.204;11.556;2023-01-29T05:13:13;96914.50;;;-1.20;100.00
57606;BME280;43430;48.204;11.556;2023-01-29T05:15:51;96924.84;;;-1.20;100.00
57606;BME280;43430;48.204;11.556;2023-01-29T05:18:19;96918.25;;;-1.24;100.00
57606;BME280;43430;48.204;11.556;2023-01-29T05:20:45;96921.81;;;-1.25;100.00
57606;BME280;43430;48.204;11.556;2023-01-29T05:23:16;96921.56;;;-1.22;100.00
57606;BME280;43430;48.204;11.556;2023-01-29T05:25:42;96936.75;;;-1.29;100.00
57606;BME280;43430;48.204;11.556;2023-01-29T05:28:08;96943.88;;;-1.21;100.00
57606;BME280;43430;48.204;11.556;2023-01-29T05:30:48;96949.59;;;-1.27;100.00
57606;BME280;43430;48.204;11.556;2023-01-29T05:35:49;96953.44;;;-1.22;100.00
57606;BME280;43430;48.204;11.556;2023-01-29T05:38:16;96956.97;;;-1.23;100.00
57606;BME280;43430;48.204;11.556;2023-01-29T05:40:42;96957.84;;;-1.33;100.00
57606;BME280;43430;48.204;11.556;2023-01-29T05:43:16;96949.69;;;-1.29;100.00
57606;BME280;43430;48.204;11.556;2023-01-29T05:45:41;96951.72;;;-1.32;100.00
57606;BME280;43430;48.204;11.556;2023-01-29T05:48:07;96963.59;;;-1.30;100.00
57606;BME280;43430;48.204;11.556;2023-01-29T05:50:32;96958.50;;;-1.31;100.00
57606;BME280;43430;48.204;11.556;2023-01-29T05:52:59;96958.50;;;-1.31;100.00
57606;BME280;43430;48.204;11.556;2023-01-29T05:55:25;96952.41;;;-1.30;100.00
57606;BME280;43430;48.204;11.556;2023-01-29T05:57:51;96946.53;;;-1.32;100.00
57606;BME280;43430;48.204;11.556;2023-01-29T06:00:16;96958.97;;;-1.26;100.00
57606;BME280;43430;48.204;11.556;2023-01-29T06:02:42;96969.09;;;-1.23;100.00
57606;BME280;43430;48.204;11.556;2023-01-29T06:05:08;96955.44;;;-1.25;100.00
57606;BME280;43430;48.204;11.556;2023-01-29T06:07:33;96951.00;;;-1.34;100.00
57606;BME280;43430;48.204;11.556;2023-01-29T06:09:58;96947.97;;;-1.39;100.00
57606;BME280;43430;48.204;11.556;2023-01-29T06:12:27;96945.38;;;-1.39;100.00
57606;BME280;43430;48.204;11.556;2023-01-29T06:14:52;96940.47;;;-1.42;100.00
57606;BME280;43430;48.204;11.556;2023-01-29T06:17:18;96937.63;;;-1.39;100.00
57606;BME280;43430;48.204;11.556;2023-01-29T06:19:43;96945.16;;;-1.36;100.00
57606;BME280;43430;48.204;11.556;2023-01-29T06:22:08;96943.13;;;-1.33;100.00
57606;BME280;43430;48.204;11.556;2023-01-29T06:24:35;96939.47;;;-1.30;100.00
57606;BME280;43430;48.204;11.556;2023-01-29T06:27:00;96943.00;;;-1.31;100.00
57606;BME280;43430;48.204;11.556;2023-01-29T06:29:25;96947.25;;;-1.41;100.00
57606;BME280;43430;48.204;11.556;2023-01-29T06:31:51;96938.81;;;-1.44;100.00
57606;BME280;43430;48.204;11.556;2023-01-29T06:34:16;96944.09;;;-1.34;100.00
57606;BME280;43430;48.204;11.556;2023-01-29T06:36:42;96953.09;;;-1.28;100.00
57606;BME280;43430;48.204;11.556;2023-01-29T06:39:07;96955.38;;;-1.14;100.00
57606;BME280;43430;48.204;11.556;2023-01-29T06:41:33;96952.78;;;-1.14;100.00
57606;BME280;43430;48.204;11.556;2023-01-29T06:43:58;96954.00;;;-1.18;100.00
57606;BME280;43430;48.204;11.556;2023-01-29T06:46:24;96961.31;;;-1.23;100.00
57606;BME280;43430;48.204;11.556;2023-01-29T06:48:50;96955.91;;;-1.20;100.00
57606;BME280;43430;48.204;11.556;2023-01-29T06:51:15;96953.75;;;-1.15;100.00
57606;BME280;43430;48.204;11.556;2023-01-29T06:53:41;96955.91;;;-1.20;100.00
57606;BME280;43430;48.204;11.556;2023-01-29T06:56:06;96949.84;;;-1.30;100.00
57606;BME280;43430;48.204;11.556;2023-01-29T06:58:32;96935.94;;;-1.29;100.00
57606;BME280;43430;48.204;11.556;2023-01-29T07:01:09;96936.50;;;-1.26;100.00
57606;BME280;43430;48.204;11.556;2023-01-29T07:03:35;96937.56;;;-1.28;100.00
57606;BME280;43430;48.204;11.556;2023-01-29T07:06:00;96937.63;;;-1.39;100.00
57606;BME280;43430;48.204;11.556;2023-01-29T07:08:26;96937.25;;;-1.35;100.00
57606;BME280;43430;48.204;11.556;2023-01-29T07:10:52;96929.38;;;-1.33;100.00
57606;BME280;43430;48.204;11.556;2023-01-29T07:13:18;96933.66;;;-1.44;100.00
57606;BME280;43430;48.204;11.556;2023-01-29T07:15:43;96937.31;;;-1.25;100.00
57606;BME280;43430;48.204;11.556;2023-01-29T07:18:09;96924.09;;;-1.11;100.00
57606;BME280;43430;48.204;11.556;2023-01-29T07:20:39;96925.22;;;-1.04;100.00
57606;BME280;43430;48.204;11.556;2023-01-29T07:23:05;96922.44;;;-1.12;100.00
57606;BME280;43430;48.204;11.556;2023-01-29T07:25:32;96929.78;;;-1.17;100.00
57606;BME280;43430;48.204;11.556;2023-01-29T07:28:01;96934.00;;;-1.16;100.00
57606;BME280;43430;48.204;11.556;2023-01-29T07:30:27;96920.16;;;-1.26;100.00
57606;BME280;43430;48.204;11.556;2023-01-29T07:32:53;96910.47;;;-1.13;100.00
57606;BME280;43430;48.204;11.556;2023-01-29T07:35:18;96912.09;;;-1.12;100.00
57606;BME280;43430;48.204;11.556;2023-01-29T07:37:43;96909.81;;;-1.05;100.00
57606;BME280;43430;48.204;11.556;2023-01-29T07:40:09;96902.13;;;-0.96;100.00
57606;BME280;43430;48.204;11.556;2023-01-29T07:42:37;96902.81;;;-0.93;100.00
57606;BME280;43430;48.204;11.556;2023-01-29T07:45:05;96895.00;;;-1.03;100.00
57606;BME280;43430;48.204;11.556;2023-01-29T07:47:30;96901.34;;;-1.07;100.00
57606;BME280;43430;48.204;11.556;2023-01-29T07:49:56;96905.97;;;-1.11;100.00
57606;BME280;43430;48.204;11.556;2023-01-29T07:52:21;96908.13;;;-1.16;100.00
57606;BME280;43430;48.204;11.556;2023-01-29T07:54:46;96905.28;;;-1.13;100.00
57606;BME280;43430;48.204;11.556;2023-01-29T07:57:12;96910.72;;;-1.16;100.00
57606;BME280;43430;48.204;11.556;2023-01-29T07:59:37;96913.16;;;-1.14;100.00
57606;BME280;43430;48.204;11.556;2023-01-29T08:02:03;96909.00;;;-1.27;100.00
57606;BME280;43430;48.204;11.556;2023-01-29T08:04:28;96909.94;;;-1.28;100.00
57606;BME280;43430;48.204;11.556;2023-01-29T08:06:54;96912.28;;;-1.25;100.00
57606;BME280;43430;48.204;11.556;2023-01-29T08:09:19;96906.75;;;-1.20;100.00
57606;BME280;43430;48.204;11.556;2023-01-29T08:11:44;96917.97;;;-1.10;100.00
57606;BME280;43430;48.204;11.556;2023-01-29T08:14:10;96911.84;;;-1.09;100.00
57606;BME280;43430;48.204;11.556;2023-01-29T08:16:35;96905.97;;;-1.11;100.00
57606;BME280;43430;48.204;11.556;2023-01-29T08:19:01;96903.06;;;-0.97;100.00
57606;BME280;43430;48.204;11.556;2023-01-29T08:21:27;96892.03;;;-0.99;100.00
57606;BME280;43430;48.204;11.556;2023-01-29T08:23:52;96895.34;;;-0.87;100.00
57606;BME280;43430;48.204;11.556;2023-01-29T08:26:18;96897.56;;;-0.82;100.00
57606;BME280;43430;48.204;11.556;2023-01-29T08:28:43;96896.47;;;-0.80;100.00
57606;BME280;43430;48.204;11.556;2023-01-29T08:31:16;96902.31;;;-0.87;100.00
57606;BME280;43430;48.204;11.556;2023-01-29T08:33:42;96910.53;;;-0.82;100.00
57606;BME280;43430;48.204;11.556;2023-01-29T08:36:08;96908.75;;;-0.82;100.00
57606;BME280;43430;48.204;11.556;2023-01-29T08:38:33;96900.16;;;-0.82;100.00
57606;BME280;43430;48.204;11.556;2023-01-29T08:40:59;96905.19;;;-0.81;100.00
57606;BME280;43430;48.204;11.556;2023-01-29T08:43:24;96916.13;;;-0.77;100.00
57606;BME280;43430;48.204;11.556;2023-01-29T08:45:50;96923.06;;;-0.78;100.00
57606;BME280;43430;48.204;11.556;2023-01-29T08:48:15;96931.81;;;-0.79;100.00
57606;BME280;43430;48.204;11.556;2023-01-29T08:50:40;96935.38;;;-0.70;100.00
57606;BME280;43430;48.204;11.556;2023-01-29T08:53:07;96933.81;;;-0.61;100.00
57606;BME280;43430;48.204;11.556;2023-01-29T08:55:37;96942.19;;;-0.69;100.00
57606;BME280;43430;48.204;11.556;2023-01-29T08:58:09;96938.53;;;-0.66;100.00
57606;BME280;43430;48.204;11.556;2023-01-29T09:00:35;96944.66;;;-0.67;100.00
57606;BME280;43430;48.204;11.556;2023-01-29T09:03:00;96939.31;;;-0.76;100.00
57606;BME280;43430;48.204;11.556;2023-01-29T09:05:27;96950.28;;;-0.83;100.00
57606;BME280;43430;48.204;11.556;2023-01-29T09:07:53;96949.84;;;-0.88;100.00
57606;BME280;43430;48.204;11.556;2023-01-29T09:10:18;96952.88;;;-0.83;100.00
57606;BME280;43430;48.204;11.556;2023-01-29T09:12:44;96962.47;;;-0.74;100.00
57606;BME280;43430;48.204;11.556;2023-01-29T09:15:10;96966.78;;;-0.84;100.00
57606;BME280;43430;48.204;11.556;2023-01-29T09:17:35;96965.66;;;-0.91;100.00
57606;BME280;43430;48.204;11.556;2023-01-29T09:20:01;96966.94;;;-0.97;100.00
57606;BME280;43430;48.204;11.556;2023-01-29T09:22:26;96972.38;;;-1.00;100.00
57606;BME280;43430;48.204;11.556;2023-01-29T09:24:52;96977.63;;;-0.90;100.00
57606;BME280;43430;48.204;11.556;2023-01-29T09:27:17;96978.34;;;-0.88;100.00
57606;BME280;43430;48.204;11.556;2023-01-29T09:29:43;96973.41;;;-0.91;100.00
57606;BME280;43430;48.204;11.556;2023-01-29T09:32:08;96976.00;;;-0.91;100.00
57606;BME280;43430;48.204;11.556;2023-01-29T09:34:34;96979.00;;;-0.86;100.00
57606;BME280;43430;48.204;11.556;2023-01-29T09:36:59;96980.69;;;-0.85;100.00
57606;BME280;43430;48.204;11.556;2023-01-29T09:39:24;96983.69;;;-0.80;100.00
57606;BME280;43430;48.204;11.556;2023-01-29T09:46:52;97000.81;;;-1.21;100.00
57606;BME280;43430;48.204;11.556;2023-01-29T09:49:28;96997.19;;;-0.98;100.00
57606;BME280;43430;48.204;11.556;2023-01-29T09:52:09;96987.88;;;-0.89;100.00
57606;BME280;43430;48.204;11.556;2023-01-29T09:57:37;96986.69;;;-0.85;100.00
57606;BME280;43430;48.204;11.556;2023-01-29T10:00:12;96984.50;;;-1.01;100.00
57606;BME280;43430;48.204;11.556;2023-01-29T10:08:16;96979.22;;;-0.78;100.00
57606;BME280;43430;48.204;11.556;2023-01-29T10:11:01;96989.56;;;-0.99;100.00
57606;BME280;43430;48.204;11.556;2023-01-29T10:13:39;96985.72;;;-0.84;100.00
57606;BME280;43430;48.204;11.556;2023-01-29T10:19:45;96978.75;;;-1.04;100.00
57606;BME280;43430;48.204;11.556;2023-01-29T10:22:34;96971.72;;;-0.81;100.00
57606;BME280;43430;48.204;11.556;2023-01-29T10:25:07;96976.13;;;-0.72;100.00
57606;BME280;43430;48.204;11.556;2023-01-29T10:27:37;96978.09;;;-0.64;100.00
57606;BME280;43430;48.204;11.556;2023-01-29T10:30:07;96965.88;;;-0.94;100.00
57606;BME280;43430;48.204;11.556;2023-01-29T10:32:36;96971.47;;;-0.78;100.00
57606;BME280;43430;48.204;11.556;2023-01-29T10:37:40;96958.19;;;-0.64;100.00
57606;BME280;43430;48.204;11.556;2023-01-29T10:40:36;96957.38;;;-0.64;100.00
57606;BME280;43430;48.204;11.556;2023-01-29T10:43:14;96959.00;;;-0.63;100.00
57606;BME280;43430;48.204;11.556;2023-01-29T10:46:14;96950.81;;;-0.68;100.00
57606;BME280;43430;48.204;11.556;2023-01-29T11:02:19;96944.63;;;-0.46;100.00
57606;BME280;43430;48.204;11.556;2023-01-29T11:04:46;96942.56;;;-0.53;100.00
57606;BME280;43430;48.204;11.556;2023-01-29T11:07:15;96945.63;;;-0.68;100.00
57606;BME280;43430;48.204;11.556;2023-01-29T11:09:48;96943.34;;;-0.83;100.00
57606;BME280;43430;48.204;11.556;2023-01-29T11:12:26;96941.19;;;-0.78;100.00
57606;BME280;43430;48.204;11.556;2023-01-29T11:15:02;96941.75;;;-0.74;100.00
57606;BME280;43430;48.204;11.556;2023-01-29T11:17:29;96935.78;;;-0.75;100.00
57606;BME280;43430;48.204;11.556;2023-01-29T11:19:55;96928.38;;;-0.79;100.00
57606;BME280;43430;48.204;11.556;2023-01-29T11:22:22;96931.56;;;-0.66;100.00
57606;BME280;43430;48.204;11.556;2023-01-29T11:25:14;96921.91;;;-0.64;100.00
57606;BME280;43430;48.204;11.556;2023-01-29T11:27:48;96921.47;;;-0.48;100.00
57606;BME280;43430;48.204;11.556;2023-01-29T11:30:20;96915.88;;;-0.74;100.00
57606;BME280;43430;48.204;11.556;2023-01-29T11:33:22;96912.16;;;-0.81;100.00
57606;BME280;43430;48.204;11.556;2023-01-29T11:35:48;96915.53;;;-0.60;100.00
57606;BME280;43430;48.204;11.556;2023-01-29T11:38:21;96920.78;;;-0.71;100.00
57606;BME280;43430;48.204;11.556;2023-01-29T11:40:49;96914.84;;;-0.83;100.00
57606;BME280;43430;48.204;11.556;2023-01-29T11:43:27;96911.97;;;-0.68;100.00
57606;BME280;43430;48.204;11.556;2023-01-29T11:45:57;96903.44;;;-0.50;100.00
57606;BME280;43430;48.204;11.556;2023-01-29T11:48:46;96884.91;;;-0.55;100.00
57606;BME280;43430;48.204;11.556;2023-01-29T11:51:26;96878.03;;;-0.65;100.00
57606;BME280;43430;48.204;11.556;2023-01-29T11:53:54;96854.06;;;-0.58;100.00
57606;BME280;43430;48.204;11.556;2023-01-29T11:58:59;96837.72;;;-0.49;100.00
57606;BME280;43430;48.204;11.556;2023-01-29T12:01:37;96838.00;;;-0.52;100.00
57606;BME280;43430;48.204;11.556;2023-01-29T12:04:34;96828.66;;;-0.33;100.00
57606;BME280;43430;48.204;11.556;2023-01-29T12:07:13;96830.16;;;-0.21;100.00
57606;BME280;43430;48.204;11.556;2023-01-29T12:09:40;96825.78;;;-0.30;100.00
57606;BME280;43430;48.204;11.556;2023-01-29T12:12:29;96829.06;;;-0.38;100.00
57606;BME280;43430;48.204;11.556;2023-01-29T12:15:20;96839.91;;;-0.54;100.00
57606;BME280;43430;48.204;11.556;2023-01-29T12:18:24;96837.06;;;-0.51;100.00
57606;BME280;43430;48.204;11.556;2023-01-29T12:20:56;96839.34;;;-0.57;100.00
57606;BME280;43430;48.204;11.556;2023-01-29T12:23:34;96845.28;;;-0.66;100.00
57606;BME280;43430;48.204;11.556;2023-01-29T12:26:10;96856.81;;;-0.80;100.00
57606;BME280;43430;48.204;11.556;2023-01-29T12:34:13;96852.59;;;-0.81;100.00
57606;BME280;43430;48.204;11.556;2023-01-29T12:36:54;96846.38;;;-0.69;100.00
57606;BME280;43430;48.204;11.556;2023-01-29T12:39:20;96843.72;;;-0.88;100.00
57606;BME280;43430;48.204;11.556;2023-01-29T12:41:58;96843.56;;;-0.87;100.00
57606;BME280;43430;48.204;11.556;2023-01-29T12:44:32;96841.44;;;-0.82;100.00
57606;BME280;43430;48.204;11.556;2023-01-29T12:47:00;96836.66;;;-0.77;100.00
57606;BME280;43430;48.204;11.556;2023-01-29T12:49:29;96832.41;;;-0.87;100.00
57606;BME280;43430;48.204;11.556;2023-01-29T12:52:03;96823.38;;;-0.93;100.00
57606;BME280;43430;48.204;11.556;2023-01-29T12:54:42;96816.69;;;-0.65;100.00
57606;BME280;43430;48.204;11.556;2023-01-29T12:57:44;96815.03;;;-0.76;100.00
57606;BME280;43430;48.204;11.556;2023-01-29T13:00:24;96808.78;;;-0.63;100.00
57606;BME280;43430;48.204;11.556;2023-01-29T13:02:59;96798.94;;;-0.69;100.00
57606;BME280;43430;48.204;11.556;2023-01-29T13:05:33;96786.19;;;-0.61;100.00
57606;BME280;43430;48.204;11.556;2023-01-29T13:08:18;96783.69;;;-0.63;100.00
57606;BME280;43430;48.204;11.556;2023-01-29T13:10:49;96787.50;;;-0.67;100.00
57606;BME280;43430;48.204;11.556;2023-01-29T13:13:25;96778.88;;;-0.77;100.00
57606;BME280;43430;48.204;11.556;2023-01-29T13:15:52;96778.78;;;-0.66;100.00
57606;BME280;43430;48.204;11.556;2023-01-29T13:18:28;96776.31;;;-0.77;100.00
57606;BME280;43430;48.204;11.556;2023-01-29T13:20:58;96770.31;;;-0.78;100.00
57606;BME280;43430;48.204;11.556;2023-01-29T13:23:32;96765.41;;;-0.71;100.00
57606;BME280;43430;48.204;11.556;2023-01-29T13:25:59;96766.00;;;-0.58;100.00
57606;BME280;43430;48.204;11.556;2023-01-29T13:28:25;96773.84;;;-0.69;100.00
57606;BME280;43430;48.204;11.556;2023-01-29T13:31:27;96766.94;;;-0.59;100.00
57606;BME280;43430;48.204;11.556;2023-01-29T13:34:22;96763.28;;;-0.56;100.00
57606;BME280;43430;48.204;11.556;2023-01-29T13:36:56;96762.72;;;-0.60;100.00
57606;BME280;43430;48.204;11.556;2023-01-29T13:41:52;96760.22;;;-0.81;100.00
57606;BME280;43430;48.204;11.556;2023-01-29T13:44:27;96753.16;;;-0.59;100.00
57606;BME280;43430;48.204;11.556;2023-01-29T13:46:58;96750.28;;;-0.66;100.00
57606;BME280;43430;48.204;11.556;2023-01-29T13:49:34;96749.47;;;-0.66;100.00
57606;BME280;43430;48.204;11.556;2023-01-29T13:52:15;96741.84;;;-0.68;100.00
57606;BME280;43430;48.204;11.556;2023-01-29T13:54:49;96744.19;;;-0.65;100.00
57606;BME280;43430;48.204;11.556;2023-01-29T13:57:45;96737.00;;;-0.52;100.00
57606;BME280;43430;48.204;11.556;2023-01-29T14:05:40;96730.41;;;-0.65;100.00
57606;BME280;43430;48.204;11.556;2023-01-29T14:10:37;96736.16;;;-1.02;100.00
57606;BME280;43430;48.204;11.556;2023-01-29T14:15:35;96734.03;;;-0.87;100.00
57606;BME280;43430;48.204;11.556;2023-01-29T14:18:16;96725.03;;;-0.83;100.00
57606;BME280;43430;48.204;11.556;2023-01-29T14:23:38;96732.50;;;-0.90;100.00
57606;BME280;43430;48.204;11.556;2023-01-29T14:34:01;96743.13;;;-1.03;100.00
57606;BME280;43430;48.204;11.556;2023-01-29T14:36:27;96752.41;;;-0.90;100.00
57606;BME280;43430;48.204;11.556;2023-01-29T14:38:53;96757.31;;;-0.87;100.00
57606;BME280;43430;48.204;11.556;2023-01-29T14:41:29;96763.72;;;-0.91;100.00
57606;BME280;43430;48.204;11.556;2023-01-29T14:47:17;96762.75;;;-0.90;100.00
57606;BME280;43430;48.204;11.556;2023-01-29T14:52:32;96770.47;;;-1.10;100.00
57606;BME280;43430;48.204;11.556;2023-01-29T14:55:03;96768.00;;;-1.11;100.00
57606;BME280;43430;48.204;11.556;2023-01-29T14:57:31;96758.13;;;-0.87;100.00
57606;BME280;43430;48.204;11.556;2023-01-29T15:00:03;96743.59;;;-0.78;100.00
57606;BME280;43430;48.204;11.556;2023-01-29T15:02:41;96737.06;;;-0.73;100.00
57606;BME280;43430;48.204;11.556;2023-01-29T15:05:12;96739.94;;;-0.76;100.00